Aurora, Utah
Current Conditions -  °F | °C
As of 6:35 PM on Thursday 27 Nov 2014 (Local Time) from KDTA Reporting Station
Clear Clear  
Wind Chill: 41°   Ceiling: Unl
Heat Index: 44°   Visibility: 10mi
Dew Point: 29°   Wind: 5mph
Humidity: 56%   Direction: 30°NNE
Pressure: 30.21"   Gusts: NA
Location:  38.92°N, 111.93°W
Report Text: KDTA 280135Z AUTO 03004KT 10SM CLR 06/M02 A3021 RMK AO1 T00641018
Loading
Personal Weather Stations






























Interactive Weather Map New forecast layout! Learn more

10-Day Weather Forecast

Advertisements
Track Severe Weather on mobile